Time;durP1;ratioP1;P1;durP2;ratioP2;P2;SDS_P1;SDS_P2;PMS_P1;PMS_P2;Temp;Humidity;BMP_temperature;BMP_pressure;BME280_temperature;BME280_humidity;BME280_pressure;Samples;Min_cycle;Max_cycle;Signal;HPM_P1;HPM_P2
2023/07/20 00:00:53;;;;;;;4.80;1.40;;;;;;;;;;5105517;28;20518;-68
2023/07/20 00:03:23;;;;;;;3.25;1.60;;;;;;;;;;5139553;27;20051;-68
2023/07/20 00:05:49;;;;;;;3.60;1.63;;;;;;;;;;5104322;28;20083;-68
2023/07/20 00:08:17;;;;;;;3.60;1.30;;;;;;;;;;5108906;28;20036;-68
2023/07/20 00:10:43;;;;;;;4.10;1.55;;;;;;;;;;5108870;28;20040;-68
2023/07/20 00:13:10;;;;;;;5.32;1.45;;;;;;;;;;5106139;28;20036;-68
2023/07/20 00:15:37;;;;;;;4.53;1.40;;;;;;;;;;5108985;28;20441;-68
2023/07/20 00:18:04;;;;;;;5.18;1.63;;;;;;;;;;5104004;28;20107;-68
2023/07/20 00:20:30;;;;;;;6.43;1.60;;;;;;;;;;5106078;28;20043;-68
2023/07/20 00:22:58;;;;;;;3.33;1.65;;;;;;;;;;5108497;28;20499;-68
2023/07/20 00:25:24;;;;;;;5.82;2.75;;;;;;;;;;5105672;28;20078;-68
2023/07/20 00:27:51;;;;;;;2.67;1.48;;;;;;;;;;5109150;28;20048;-68
2023/07/20 00:30:18;;;;;;;4.20;1.80;;;;;;;;;;5110168;28;20391;-68
2023/07/20 00:32:44;;;;;;;3.67;1.60;;;;;;;;;;5100300;28;20048;-68
2023/07/20 00:35:11;;;;;;;4.53;1.75;;;;;;;;;;5109042;28;20503;-68
2023/07/20 00:37:37;;;;;;;5.90;2.15;;;;;;;;;;5107746;28;20044;-68
2023/07/20 00:40:04;;;;;;;3.17;1.95;;;;;;;;;;5113261;28;20363;-68
2023/07/20 00:42:30;;;;;;;3.30;2.08;;;;;;;;;;5112765;28;20491;-68
2023/07/20 00:44:56;;;;;;;3.53;2.08;;;;;;;;;;5114907;28;20062;-68
2023/07/20 00:47:23;;;;;;;3.95;2.10;;;;;;;;;;5102836;27;20144;-68
2023/07/20 00:49:49;;;;;;;4.15;2.38;;;;;;;;;;5112800;28;20487;-68
2023/07/20 00:52:15;;;;;;;3.88;2.60;;;;;;;;;;5091262;28;20051;-68
2023/07/20 00:54:42;;;;;;;4.55;2.10;;;;;;;;;;5112750;28;20039;-68
2023/07/20 00:57:08;;;;;;;4.15;2.00;;;;;;;;;;5110062;28;20047;-68
2023/07/20 00:59:35;;;;;;;3.15;1.90;;;;;;;;;;5109378;28;20482;-68
2023/07/20 01:02:02;;;;;;;6.25;2.35;;;;;;;;;;5108683;28;20469;-68
2023/07/20 01:04:28;;;;;;;4.22;2.15;;;;;;;;;;5112582;27;20047;-68
2023/07/20 01:06:55;;;;;;;4.05;1.63;;;;;;;;;;5112912;28;20035;-68
2023/07/20 01:09:29;;;;;;;5.88;2.10;;;;;;;;;;5110792;28;20043;-68
2023/07/20 01:12:21;;;;;;;6.80;2.28;;;;;;;;;;5108072;27;20130;-68
2023/07/20 01:14:48;;;;;;;4.80;2.45;;;;;;;;;;5108158;28;20081;-68
2023/07/20 01:17:14;;;;;;;6.70;2.13;;;;;;;;;;5112562;28;20104;-68
2023/07/20 01:19:40;;;;;;;3.95;1.80;;;;;;;;;;5111246;28;20047;-68
2023/07/20 01:22:09;;;;;;;3.15;1.90;;;;;;;;;;5098662;27;20132;-67
2023/07/20 01:24:54;;;;;;;5.25;2.08;;;;;;;;;;5107516;27;20043;-67
2023/07/20 01:27:23;;;;;;;4.72;1.75;;;;;;;;;;5102847;28;20051;-67
2023/07/20 01:29:59;;;;;;;4.15;2.25;;;;;;;;;;5103883;28;20058;-67
2023/07/20 01:32:25;;;;;;;3.05;2.10;;;;;;;;;;5103600;28;20046;-67
2023/07/20 01:34:53;;;;;;;3.75;1.90;;;;;;;;;;5103617;28;20051;-67
2023/07/20 01:37:24;;;;;;;4.43;2.13;;;;;;;;;;5105117;28;20054;-67
2023/07/20 01:39:51;;;;;;;5.95;2.20;;;;;;;;;;5106049;27;20043;-67
2023/07/20 01:42:18;;;;;;;8.55;2.00;;;;;;;;;;5105210;28;20072;-67
2023/07/20 01:44:44;;;;;;;4.53;2.05;;;;;;;;;;5106633;28;20394;-67
2023/07/20 01:47:10;;;;;;;3.92;1.70;;;;;;;;;;5104033;28;20047;-67
2023/07/20 01:49:36;;;;;;;5.60;2.00;;;;;;;;;;5102690;27;20735;-67
2023/07/20 01:52:02;;;;;;;4.15;1.60;;;;;;;;;;5108647;28;20181;-67
2023/07/20 01:54:28;;;;;;;7.97;1.85;;;;;;;;;;5111653;27;20134;-67
2023/07/20 01:56:55;;;;;;;4.97;1.80;;;;;;;;;;5104673;27;20055;-67
2023/07/20 01:59:21;;;;;;;4.20;1.98;;;;;;;;;;5102316;28;20582;-67
2023/07/20 02:01:47;;;;;;;3.22;1.80;;;;;;;;;;5101637;28;20116;-67
2023/07/20 02:04:13;;;;;;;5.38;1.58;;;;;;;;;;5105403;28;20206;-67
2023/07/20 02:06:40;;;;;;;4.20;1.88;;;;;;;;;;5106994;27;20048;-67
2023/07/20 02:09:06;;;;;;;3.80;1.77;;;;;;;;;;5103377;28;20570;-67
2023/07/20 02:11:32;;;;;;;3.45;1.60;;;;;;;;;;5103506;27;20044;-67
2023/07/20 02:13:58;;;;;;;3.63;2.00;;;;;;;;;;5104064;27;20035;-67
2023/07/20 02:16:24;;;;;;;6.35;2.17;;;;;;;;;;5101488;28;20047;-67
2023/07/20 02:18:50;;;;;;;2.83;1.63;;;;;;;;;;5106447;28;20460;-67
2023/07/20 02:21:17;;;;;;;4.00;1.80;;;;;;;;;;5106327;28;20123;-67
2023/07/20 02:23:43;;;;;;;5.40;2.15;;;;;;;;;;5109099;27;20122;-67
2023/07/20 02:26:09;;;;;;;3.53;1.63;;;;;;;;;;5105981;28;20130;-67
2023/07/20 02:28:35;;;;;;;4.20;1.85;;;;;;;;;;5109675;28;20052;-67
2023/07/20 02:31:01;;;;;;;4.65;1.90;;;;;;;;;;5103454;27;20043;-67
2023/07/20 02:33:28;;;;;;;3.95;1.83;;;;;;;;;;5108939;27;20035;-67
2023/07/20 02:35:54;;;;;;;3.33;1.60;;;;;;;;;;5106723;28;20069;-67
2023/07/20 02:38:20;;;;;;;3.90;1.80;;;;;;;;;;5101620;27;20044;-67
2023/07/20 02:40:46;;;;;;;7.38;1.63;;;;;;;;;;5110646;27;20165;-68
2023/07/20 02:43:12;;;;;;;3.67;1.98;;;;;;;;;;5112532;27;20078;-67
2023/07/20 02:45:44;;;;;;;3.72;1.55;;;;;;;;;;5110902;27;20499;-67
2023/07/20 02:48:11;;;;;;;5.03;2.10;;;;;;;;;;5109675;28;20382;-67
2023/07/20 02:50:37;;;;;;;7.00;1.90;;;;;;;;;;5106704;28;20534;-67
2023/07/20 02:53:03;;;;;;;3.50;1.80;;;;;;;;;;5101825;27;20048;-67
2023/07/20 02:55:29;;;;;;;3.08;1.70;;;;;;;;;;5144009;27;20557;-67
2023/07/20 02:57:55;;;;;;;3.72;1.60;;;;;;;;;;5107795;28;20406;-67
2023/07/20 03:00:23;;;;;;;4.93;1.67;;;;;;;;;;5102942;28;20071;-67
2023/07/20 03:02:55;;;;;;;3.33;1.38;;;;;;;;;;5101037;28;21257;-67
2023/07/20 03:05:22;;;;;;;2.78;1.40;;;;;;;;;;5101546;27;20048;-67
2023/07/20 03:07:49;;;;;;;4.15;1.75;;;;;;;;;;5100898;28;20051;-67
2023/07/20 03:10:15;;;;;;;4.32;2.00;;;;;;;;;;5097685;28;20552;-67
2023/07/20 03:12:42;;;;;;;1.23;0.77;;;;;;;;;;5101466;28;20052;-67
2023/07/20 03:15:08;;;;;;;1.13;0.50;;;;;;;;;;5102694;28;20453;-67
2023/07/20 03:17:34;;;;;;;1.33;0.57;;;;;;;;;;5102161;28;20051;-67
2023/07/20 03:20:01;;;;;;;1.40;0.70;;;;;;;;;;5102987;28;20402;-67
2023/07/20 03:22:27;;;;;;;2.72;1.10;;;;;;;;;;5101243;27;20138;-67
2023/07/20 03:24:53;;;;;;;2.30;0.90;;;;;;;;;;5102922;28;20043;-67
2023/07/20 03:27:19;;;;;;;3.33;0.90;;;;;;;;;;5102624;28;20035;-67
2023/07/20 03:29:45;;;;;;;2.13;1.20;;;;;;;;;;5102166;28;20039;-67
2023/07/20 03:32:12;;;;;;;2.70;1.42;;;;;;;;;;5108976;28;20403;-67
2023/07/20 03:34:38;;;;;;;4.00;1.85;;;;;;;;;;5101569;28;20119;-67
2023/07/20 03:37:04;;;;;;;3.97;1.55;;;;;;;;;;5081302;28;20066;-67
2023/07/20 03:39:31;;;;;;;3.30;1.55;;;;;;;;;;5101125;27;20036;-67
2023/07/20 03:41:59;;;;;;;2.90;1.40;;;;;;;;;;5085693;28;20343;-67
2023/07/20 03:44:25;;;;;;;3.08;1.30;;;;;;;;;;5101077;28;20093;-67
2023/07/20 03:46:51;;;;;;;1.70;1.00;;;;;;;;;;5101761;28;20052;-67
2023/07/20 03:49:18;;;;;;;4.75;1.30;;;;;;;;;;5100943;28;20039;-67
2023/07/20 03:51:44;;;;;;;2.85;1.48;;;;;;;;;;5103042;28;20075;-67
2023/07/20 03:54:10;;;;;;;2.10;1.20;;;;;;;;;;5101582;28;20493;-67
2023/07/20 03:56:36;;;;;;;3.17;1.48;;;;;;;;;;5134765;27;20502;-67
2023/07/20 03:59:03;;;;;;;3.10;1.55;;;;;;;;;;5107144;28;20044;-67
2023/07/20 04:01:29;;;;;;;6.70;2.60;;;;;;;;;;5109846;28;20522;-67
2023/07/20 04:03:56;;;;;;;3.20;2.00;;;;;;;;;;5108786;28;20106;-67
2023/07/20 04:06:22;;;;;;;5.22;2.17;;;;;;;;;;5110272;28;20446;-67
2023/07/20 04:08:48;;;;;;;3.03;1.77;;;;;;;;;;5111406;28;20044;-67
2023/07/20 04:11:15;;;;;;;2.20;1.10;;;;;;;;;;5110076;28;20112;-67
2023/07/20 04:13:41;;;;;;;3.28;1.60;;;;;;;;;;5115133;28;20502;-67
2023/07/20 04:16:07;;;;;;;2.70;1.50;;;;;;;;;;5113880;27;20047;-67
2023/07/20 04:18:34;;;;;;;2.53;1.60;;;;;;;;;;5113804;28;20529;-67
2023/07/20 04:21:00;;;;;;;3.30;1.63;;;;;;;;;;5114498;28;20043;-67
2023/07/20 04:23:26;;;;;;;4.40;1.70;;;;;;;;;;5112519;28;20114;-67
2023/07/20 04:25:53;;;;;;;5.53;1.63;;;;;;;;;;5112860;28;20048;-67
2023/07/20 04:28:19;;;;;;;3.25;1.48;;;;;;;;;;5112613;28;20044;-67
2023/07/20 04:30:45;;;;;;;3.55;1.50;;;;;;;;;;5110302;28;20372;-67
2023/07/20 04:33:11;;;;;;;5.22;1.63;;;;;;;;;;5110401;28;20094;-67
2023/07/20 04:35:54;;;;;;;3.47;1.48;;;;;;;;;;5110998;27;20181;-67
2023/07/20 04:38:20;;;;;;;2.90;1.63;;;;;;;;;;5113620;27;20368;-68
2023/07/20 04:40:47;;;;;;;4.75;1.50;;;;;;;;;;5113699;27;20054;-67
2023/07/20 04:43:14;;;;;;;4.45;1.83;;;;;;;;;;5114196;28;20044;-67
2023/07/20 04:45:40;;;;;;;3.28;1.98;;;;;;;;;;5112815;27;20039;-65
2023/07/20 04:48:10;;;;;;;3.90;1.95;;;;;;;;;;5114942;27;20165;-67
2023/07/20 04:50:36;;;;;;;3.22;1.70;;;;;;;;;;5115153;28;20048;-67
2023/07/20 04:53:03;;;;;;;3.25;1.73;;;;;;;;;;5114430;28;20051;-67
2023/07/20 04:55:29;;;;;;;5.13;1.90;;;;;;;;;;5096244;28;20043;-67
2023/07/20 04:57:55;;;;;;;3.92;1.80;;;;;;;;;;5113242;28;20075;-67
2023/07/20 05:00:23;;;;;;;6.90;2.10;;;;;;;;;;5112005;27;20062;-67
2023/07/20 05:02:50;;;;;;;3.63;2.10;;;;;;;;;;5114889;28;20043;-67
2023/07/20 05:05:16;;;;;;;5.45;2.22;;;;;;;;;;5112511;27;20051;-67
2023/07/20 05:07:42;;;;;;;5.72;2.25;;;;;;;;;;5096858;27;20086;-68
2023/07/20 05:10:08;;;;;;;4.05;2.20;;;;;;;;;;5094317;28;20047;-68
2023/07/20 05:12:35;;;;;;;4.68;2.50;;;;;;;;;;5112673;28;20039;-68
2023/07/20 05:15:01;;;;;;;6.05;2.60;;;;;;;;;;5111182;27;20035;-68
2023/07/20 05:17:27;;;;;;;4.05;2.20;;;;;;;;;;5111975;28;20032;-68
2023/07/20 05:19:53;;;;;;;7.43;2.88;;;;;;;;;;5112907;28;20063;-68
2023/07/20 05:22:20;;;;;;;5.68;2.95;;;;;;;;;;5113124;28;20111;-69
2023/07/20 05:24:46;;;;;;;5.97;2.72;;;;;;;;;;5112714;27;20128;-68
2023/07/20 05:27:12;;;;;;;3.90;2.25;;;;;;;;;;5113422;28;20097;-67
2023/07/20 05:29:38;;;;;;;6.95;2.80;;;;;;;;;;5115753;27;20144;-67
2023/07/20 05:32:06;;;;;;;9.73;3.20;;;;;;;;;;5114067;28;20093;-68
2023/07/20 05:34:32;;;;;;;5.90;2.42;;;;;;;;;;5113076;28;20039;-69
2023/07/20 05:36:58;;;;;;;5.85;2.22;;;;;;;;;;5111399;27;20035;-71
2023/07/20 05:39:24;;;;;;;6.82;3.00;;;;;;;;;;5124642;27;20070;-69
2023/07/20 05:41:51;;;;;;;4.03;2.30;;;;;;;;;;5110839;28;20058;-69
2023/07/20 05:44:17;;;;;;;8.25;3.08;;;;;;;;;;5093737;28;20405;-69
2023/07/20 05:46:43;;;;;;;6.25;2.25;;;;;;;;;;5111054;28;20127;-69
2023/07/20 05:49:10;;;;;;;6.60;2.40;;;;;;;;;;5110565;28;20075;-69
2023/07/20 05:51:36;;;;;;;5.43;2.50;;;;;;;;;;5109660;28;20497;-69
2023/07/20 05:54:02;;;;;;;7.15;2.80;;;;;;;;;;5110927;28;20130;-69
2023/07/20 05:56:29;;;;;;;8.25;3.00;;;;;;;;;;5108924;28;20040;-69
2023/07/20 05:58:55;;;;;;;4.07;2.00;;;;;;;;;;5111214;28;20089;-69
2023/07/20 06:01:21;;;;;;;3.72;1.75;;;;;;;;;;5112990;28;20118;-69
2023/07/20 06:03:47;;;;;;;6.13;2.00;;;;;;;;;;5113321;27;20446;-69
2023/07/20 06:06:14;;;;;;;6.53;1.50;;;;;;;;;;5144346;27;20056;-69
2023/07/20 06:08:41;;;;;;;3.30;1.45;;;;;;;;;;5118980;27;20502;-69
2023/07/20 06:11:07;;;;;;;10.20;2.10;;;;;;;;;;5115301;27;20104;-69
2023/07/20 06:13:33;;;;;;;5.93;1.20;;;;;;;;;;5111514;27;20035;-68
2023/07/20 06:15:59;;;;;;;9.95;1.40;;;;;;;;;;5111394;27;20047;-68
2023/07/20 06:18:25;;;;;;;2.17;1.00;;;;;;;;;;5111628;28;20399;-68
2023/07/20 06:20:52;;;;;;;5.43;1.40;;;;;;;;;;5113383;27;20115;-68
2023/07/20 06:23:21;;;;;;;5.28;1.17;;;;;;;;;;5113147;28;20055;-66
2023/07/20 06:25:48;;;;;;;4.28;1.55;;;;;;;;;;5110476;27;20101;-66
2023/07/20 06:28:14;;;;;;;7.20;1.25;;;;;;;;;;5112303;28;20035;-66
2023/07/20 06:30:40;;;;;;;4.45;1.15;;;;;;;;;;5084197;28;20044;-67
2023/07/20 06:33:07;;;;;;;7.35;1.90;;;;;;;;;;5112505;28;20424;-67
2023/07/20 06:35:35;;;;;;;4.28;2.03;;;;;;;;;;5108432;28;20039;-67
2023/07/20 06:38:03;;;;;;;4.65;1.70;;;;;;;;;;5091917;28;20121;-66
2023/07/20 06:40:30;;;;;;;5.07;2.17;;;;;;;;;;5107247;28;20039;-66
2023/07/20 06:42:56;;;;;;;8.15;2.13;;;;;;;;;;5110779;27;20047;-67
2023/07/20 06:45:22;;;;;;;5.90;1.80;;;;;;;;;;5111950;28;20137;-67
2023/07/20 06:47:49;;;;;;;4.90;2.47;;;;;;;;;;5112671;28;20044;-67
2023/07/20 06:50:15;;;;;;;6.47;2.38;;;;;;;;;;5110434;28;20050;-67
2023/07/20 06:52:41;;;;;;;8.65;2.65;;;;;;;;;;5110720;28;20464;-67
2023/07/20 06:55:08;;;;;;;5.95;2.58;;;;;;;;;;5110606;28;20046;-66
2023/07/20 06:57:34;;;;;;;6.63;2.40;;;;;;;;;;5111164;28;20069;-67
2023/07/20 07:00:00;;;;;;;6.47;3.03;;;;;;;;;;5110633;28;20081;-66
2023/07/20 07:02:26;;;;;;;6.25;2.28;;;;;;;;;;5112849;28;20355;-67
2023/07/20 07:04:53;;;;;;;6.20;2.42;;;;;;;;;;5112877;28;20028;-67
2023/07/20 07:07:20;;;;;;;6.03;1.90;;;;;;;;;;5110653;28;20054;-67
2023/07/20 07:09:46;;;;;;;8.57;2.42;;;;;;;;;;5092536;28;20479;-67
2023/07/20 07:12:12;;;;;;;7.85;2.15;;;;;;;;;;5111013;28;20051;-67
2023/07/20 07:14:38;;;;;;;7.78;2.40;;;;;;;;;;5112086;28;20051;-65
2023/07/20 07:17:04;;;;;;;6.55;2.03;;;;;;;;;;5112627;28;20497;-67
2023/07/20 07:19:31;;;;;;;6.72;2.22;;;;;;;;;;5110722;28;20063;-67
2023/07/20 07:21:57;;;;;;;6.28;2.92;;;;;;;;;;5110577;28;20065;-67
2023/07/20 07:24:23;;;;;;;8.63;2.60;;;;;;;;;;5111952;28;20108;-67
2023/07/20 07:26:49;;;;;;;7.63;2.40;;;;;;;;;;5112019;28;20085;-67
2023/07/20 07:29:16;;;;;;;5.93;2.30;;;;;;;;;;5108938;28;20111;-67
2023/07/20 07:31:42;;;;;;;8.25;2.28;;;;;;;;;;5104610;28;20044;-67
2023/07/20 07:34:08;;;;;;;7.20;2.17;;;;;;;;;;5110778;28;20050;-67
2023/07/20 07:36:35;;;;;;;8.93;2.30;;;;;;;;;;5110505;28;20047;-66
2023/07/20 07:39:01;;;;;;;5.60;2.15;;;;;;;;;;5111974;28;20368;-67
2023/07/20 07:41:27;;;;;;;7.85;1.98;;;;;;;;;;5105332;28;20119;-67
2023/07/20 07:43:53;;;;;;;8.80;2.30;;;;;;;;;;5106645;28;20467;-67
2023/07/20 07:46:20;;;;;;;8.75;2.58;;;;;;;;;;5107633;28;20051;-67
2023/07/20 07:48:47;;;;;;;4.53;1.85;;;;;;;;;;5107217;28;20417;-67
2023/07/20 07:51:14;;;;;;;15.18;2.10;;;;;;;;;;5110940;28;20055;-67
2023/07/20 07:53:40;;;;;;;11.00;2.78;;;;;;;;;;5112098;28;20455;-73
2023/07/20 07:56:08;;;;;;;4.97;2.08;;;;;;;;;;5109556;28;20160;-65
2023/07/20 07:58:34;;;;;;;11.00;2.42;;;;;;;;;;5109154;28;20058;-67
2023/07/20 08:01:01;;;;;;;8.18;2.05;;;;;;;;;;5109674;28;20038;-67
2023/07/20 08:03:27;;;;;;;9.82;1.98;;;;;;;;;;5107909;28;20040;-67
2023/07/20 08:05:56;;;;;;;5.40;2.22;;;;;;;;;;5108507;28;20440;-66
2023/07/20 08:08:23;;;;;;;8.30;2.58;;;;;;;;;;5110574;28;20163;-66
2023/07/20 08:10:49;;;;;;;5.07;1.90;;;;;;;;;;5110585;28;20093;-66
2023/07/20 08:13:15;;;;;;;5.20;2.00;;;;;;;;;;5108222;28;20055;-67
2023/07/20 08:15:46;;;;;;;4.47;1.45;;;;;;;;;;5112119;28;20075;-67
2023/07/20 08:18:13;;;;;;;4.88;1.95;;;;;;;;;;5108176;28;20044;-66
2023/07/20 08:20:39;;;;;;;7.68;1.75;;;;;;;;;;5109915;28;20147;-67
2023/07/20 08:23:05;;;;;;;5.15;1.30;;;;;;;;;;5111825;28;20513;-67
2023/07/20 08:25:31;;;;;;;4.53;1.20;;;;;;;;;;5109436;28;20067;-67
2023/07/20 08:27:57;;;;;;;5.47;1.17;;;;;;;;;;5110451;28;20044;-67
2023/07/20 08:30:24;;;;;;;4.85;1.20;;;;;;;;;;5111052;28;20043;-67
2023/07/20 08:32:50;;;;;;;3.33;1.00;;;;;;;;;;5097454;28;20066;-67
2023/07/20 08:35:17;;;;;;;5.75;0.95;;;;;;;;;;5140629;27;20066;-67
2023/07/20 08:37:43;;;;;;;6.68;1.55;;;;;;;;;;5108341;28;20056;-67
2023/07/20 08:40:10;;;;;;;3.13;1.05;;;;;;;;;;5110160;28;20040;-67
2023/07/20 08:42:37;;;;;;;2.75;0.98;;;;;;;;;;5109755;28;20044;-66
2023/07/20 08:45:06;;;;;;;6.80;1.50;;;;;;;;;;5108013;28;20487;-67
2023/07/20 08:47:33;;;;;;;5.55;1.30;;;;;;;;;;5092642;28;20092;-67
2023/07/20 08:50:00;;;;;;;5.10;1.00;;;;;;;;;;5106480;28;20054;-66
2023/07/20 08:52:26;;;;;;;3.97;1.10;;;;;;;;;;5107992;28;20395;-66
2023/07/20 08:54:53;;;;;;;7.43;1.33;;;;;;;;;;5110389;28;20039;-66
2023/07/20 08:57:22;;;;;;;5.32;1.40;;;;;;;;;;5111398;28;20510;-66
2023/07/20 08:59:49;;;;;;;4.38;1.30;;;;;;;;;;5109800;27;20054;-66
2023/07/20 09:02:17;;;;;;;3.55;1.30;;;;;;;;;;5110027;28;20043;-67
2023/07/20 09:04:45;;;;;;;3.28;1.25;;;;;;;;;;5111816;28;20399;-66
2023/07/20 09:07:12;;;;;;;2.47;1.10;;;;;;;;;;5105167;28;20051;-66
2023/07/20 09:09:42;;;;;;;5.13;1.40;;;;;;;;;;5109292;28;20100;-66
2023/07/20 09:12:17;;;;;;;6.05;1.40;;;;;;;;;;5116666;27;20079;-66
2023/07/20 09:14:44;;;;;;;5.63;1.30;;;;;;;;;;5130976;27;20043;-66
2023/07/20 09:17:14;;;;;;;6.38;2.05;;;;;;;;;;5112070;28;20105;-67
2023/07/20 09:19:46;;;;;;;5.03;1.50;;;;;;;;;;5116513;27;20471;-66
2023/07/20 09:22:12;;;;;;;6.63;1.05;;;;;;;;;;5113581;28;20070;-67
2023/07/20 09:24:38;;;;;;;3.20;1.00;;;;;;;;;;5111227;28;20536;-66
2023/07/20 09:27:05;;;;;;;5.03;1.45;;;;;;;;;;5110440;28;20035;-67
2023/07/20 09:29:31;;;;;;;2.95;0.95;;;;;;;;;;5121254;27;20157;-66
2023/07/20 09:32:01;;;;;;;4.88;1.67;;;;;;;;;;5129885;27;20139;-66
2023/07/20 09:34:29;;;;;;;4.70;1.30;;;;;;;;;;5111836;27;20388;-76
2023/07/20 09:36:56;;;;;;;4.72;1.25;;;;;;;;;;5111653;27;20139;-67
2023/07/20 09:39:22;;;;;;;5.25;1.52;;;;;;;;;;5114411;28;20133;-66
2023/07/20 09:41:48;;;;;;;2.58;0.95;;;;;;;;;;5113803;28;20082;-66
2023/07/20 09:44:15;;;;;;;3.97;1.25;;;;;;;;;;5112295;28;20406;-67
2023/07/20 09:46:42;;;;;;;11.13;1.38;;;;;;;;;;5111799;27;20343;-67
2023/07/20 09:49:12;;;;;;;3.67;1.33;;;;;;;;;;5113389;28;20127;-66
2023/07/20 09:51:39;;;;;;;4.28;1.02;;;;;;;;;;5114080;28;20104;-67
2023/07/20 09:54:06;;;;;;;5.85;1.40;;;;;;;;;;5113406;28;20092;-66
2023/07/20 09:56:33;;;;;;;8.65;1.55;;;;;;;;;;5111903;27;20475;-67
2023/07/20 09:58:59;;;;;;;5.32;1.45;;;;;;;;;;5112931;27;20091;-67
2023/07/20 10:01:27;;;;;;;4.95;1.45;;;;;;;;;;5115872;27;20499;-67
2023/07/20 10:03:55;;;;;;;3.92;1.35;;;;;;;;;;5113005;28;20563;-67
2023/07/20 10:06:24;;;;;;;4.47;1.38;;;;;;;;;;5111506;28;20070;-67
2023/07/20 10:08:53;;;;;;;3.97;1.20;;;;;;;;;;5113648;28;20497;-67
2023/07/20 10:11:22;;;;;;;2.95;1.10;;;;;;;;;;5109861;28;20509;-67
2023/07/20 10:13:51;;;;;;;3.70;1.33;;;;;;;;;;5112565;28;20169;-67
2023/07/20 10:16:28;;;;;;;3.22;1.10;;;;;;;;;;5112912;28;20040;-68
2023/07/20 10:19:02;;;;;;;3.88;1.00;;;;;;;;;;5099858;28;20122;-67
2023/07/20 10:21:29;;;;;;;5.57;1.45;;;;;;;;;;5107672;28;20069;-67
2023/07/20 10:24:00;;;;;;;4.18;1.20;;;;;;;;;;5112983;28;20081;-67
2023/07/20 10:26:26;;;;;;;3.67;1.27;;;;;;;;;;5113493;27;20069;-67
2023/07/20 10:28:53;;;;;;;5.93;1.52;;;;;;;;;;5111761;28;20391;-67
2023/07/20 10:31:20;;;;;;;2.92;1.17;;;;;;;;;;5110071;28;20100;-71
2023/07/20 10:33:46;;;;;;;4.82;1.55;;;;;;;;;;5142411;27;20047;-67
2023/07/20 10:36:12;;;;;;;3.55;1.20;;;;;;;;;;5113300;28;20047;-67
2023/07/20 10:38:48;;;;;;;5.00;1.10;;;;;;;;;;5107245;28;20048;-67
2023/07/20 10:41:21;;;;;;;4.82;1.10;;;;;;;;;;5112681;28;20069;-67
2023/07/20 10:43:49;;;;;;;4.93;1.40;;;;;;;;;;5108969;28;20047;-67
2023/07/20 10:46:15;;;;;;;6.22;1.48;;;;;;;;;;5110979;28;20479;-67
2023/07/20 10:49:00;;;;;;;3.53;1.13;;;;;;;;;;5112386;28;20050;-67
2023/07/20 10:51:26;;;;;;;5.15;1.17;;;;;;;;;;5112118;28;20063;-67
2023/07/20 10:53:54;;;;;;;3.88;1.30;;;;;;;;;;5111024;28;20131;-66
2023/07/20 10:56:21;;;;;;;4.05;1.05;;;;;;;;;;5112984;28;20494;-66
2023/07/20 10:58:48;;;;;;;4.07;1.55;;;;;;;;;;5111950;28;20054;-67
2023/07/20 11:01:15;;;;;;;4.18;1.50;;;;;;;;;;5107786;28;20165;-66
2023/07/20 11:03:41;;;;;;;3.35;1.10;;;;;;;;;;5108750;28;20050;-67
2023/07/20 11:06:25;;;;;;;4.57;1.20;;;;;;;;;;5101206;28;20078;-66
2023/07/20 11:08:57;;;;;;;4.93;1.00;;;;;;;;;;5103465;27;20032;-67
2023/07/20 11:11:28;;;;;;;3.92;1.55;;;;;;;;;;5109739;28;20047;-67
2023/07/20 11:14:01;;;;;;;3.70;1.20;;;;;;;;;;5110042;28;20040;-67
2023/07/20 11:16:41;;;;;;;3.88;1.20;;;;;;;;;;5111450;28;20093;-67
2023/07/20 11:19:17;;;;;;;3.10;1.20;;;;;;;;;;5103066;28;20047;-67
2023/07/20 11:21:44;;;;;;;2.70;1.13;;;;;;;;;;5111345;28;20039;-68
2023/07/20 11:24:11;;;;;;;4.55;1.30;;;;;;;;;;5092897;28;20134;-67
2023/07/20 11:26:41;;;;;;;6.30;1.48;;;;;;;;;;5109754;28;20831;-67
2023/07/20 11:29:08;;;;;;;8.65;1.50;;;;;;;;;;5110572;28;20333;-67
2023/07/20 11:31:38;;;;;;;6.47;1.48;;;;;;;;;;5107781;28;20035;-67
2023/07/20 11:34:04;;;;;;;4.32;1.30;;;;;;;;;;5096784;28;20439;-67
2023/07/20 11:36:30;;;;;;;5.72;1.20;;;;;;;;;;5111925;28;20491;-66
2023/07/20 11:38:56;;;;;;;4.38;1.58;;;;;;;;;;5108956;28;20062;-67
2023/07/20 11:41:23;;;;;;;4.30;1.20;;;;;;;;;;5134657;27;20051;-67
2023/07/20 11:43:49;;;;;;;4.38;1.42;;;;;;;;;;5112445;28;20035;-67
2023/07/20 11:46:16;;;;;;;3.05;1.50;;;;;;;;;;5109776;28;20706;-66
2023/07/20 11:48:42;;;;;;;6.10;1.85;;;;;;;;;;5104705;28;20047;-67
2023/07/20 11:51:14;;;;;;;4.13;1.42;;;;;;;;;;5108366;28;20051;-66
2023/07/20 11:53:43;;;;;;;6.18;1.73;;;;;;;;;;5099615;28;20044;-66
2023/07/20 11:56:09;;;;;;;4.40;1.52;;;;;;;;;;5109148;28;20441;-66
2023/07/20 11:58:35;;;;;;;6.00;1.83;;;;;;;;;;5112358;28;20399;-67
2023/07/20 12:01:02;;;;;;;6.80;1.65;;;;;;;;;;5109652;28;20039;-67
2023/07/20 12:03:28;;;;;;;4.25;1.38;;;;;;;;;;5108304;28;20047;-67
2023/07/20 12:05:54;;;;;;;6.10;1.38;;;;;;;;;;5107317;28;20036;-67
2023/07/20 12:08:21;;;;;;;3.60;1.40;;;;;;;;;;5110377;28;20052;-67
2023/07/20 12:10:49;;;;;;;4.00;1.33;;;;;;;;;;5107344;28;20043;-67
2023/07/20 12:13:16;;;;;;;3.47;1.30;;;;;;;;;;5109258;28;20530;-67
2023/07/20 12:15:42;;;;;;;5.45;1.95;;;;;;;;;;5108000;28;20058;-77
2023/07/20 12:18:08;;;;;;;4.20;1.27;;;;;;;;;;5089496;28;20055;-67
2023/07/20 12:20:36;;;;;;;5.72;1.60;;;;;;;;;;5109294;28;20113;-67
2023/07/20 12:23:07;;;;;;;3.75;1.30;;;;;;;;;;5110669;28;20495;-67
2023/07/20 12:25:34;;;;;;;4.50;1.52;;;;;;;;;;5110659;28;20402;-67
2023/07/20 12:28:10;;;;;;;4.45;1.60;;;;;;;;;;5107619;28;20044;-67
2023/07/20 12:30:37;;;;;;;3.40;1.50;;;;;;;;;;5110585;28;20066;-67
2023/07/20 12:33:03;;;;;;;6.15;2.15;;;;;;;;;;5108939;28;20046;-67
2023/07/20 12:35:30;;;;;;;4.57;1.52;;;;;;;;;;5114274;28;20040;-67
2023/07/20 12:37:56;;;;;;;4.15;1.70;;;;;;;;;;5110799;27;20039;-67
2023/07/20 12:40:22;;;;;;;6.15;1.60;;;;;;;;;;5109203;28;20075;-67
2023/07/20 12:42:48;;;;;;;4.93;1.40;;;;;;;;;;5114058;28;20051;-67
2023/07/20 12:45:15;;;;;;;5.88;1.60;;;;;;;;;;5104446;28;20054;-67
2023/07/20 12:47:43;;;;;;;3.72;1.27;;;;;;;;;;5111952;28;20134;-67
2023/07/20 12:50:12;;;;;;;7.50;1.30;;;;;;;;;;5111861;28;20052;-67
2023/07/20 12:52:39;;;;;;;4.13;1.67;;;;;;;;;;5111260;27;20052;-67
2023/07/20 12:55:09;;;;;;;2.83;1.10;;;;;;;;;;5109338;28;20092;-67
2023/07/20 12:57:36;;;;;;;2.17;0.93;;;;;;;;;;5110095;27;20039;-68
2023/07/20 13:00:03;;;;;;;3.22;1.20;;;;;;;;;;5105669;28;20056;-68
2023/07/20 13:02:31;;;;;;;4.00;1.20;;;;;;;;;;5108735;28;20035;-68
2023/07/20 13:04:57;;;;;;;5.90;1.40;;;;;;;;;;5108579;28;20127;-68
2023/07/20 13:07:33;;;;;;;3.97;1.50;;;;;;;;;;5108030;28;20439;-68
2023/07/20 13:10:00;;;;;;;2.95;1.25;;;;;;;;;;5109047;28;20471;-68
2023/07/20 13:12:27;;;;;;;3.90;1.13;;;;;;;;;;5108103;28;20044;-68
2023/07/20 13:14:53;;;;;;;3.42;1.33;;;;;;;;;;5109734;28;20039;-68
2023/07/20 13:17:20;;;;;;;2.40;1.05;;;;;;;;;;5109119;27;20046;-68
2023/07/20 13:19:46;;;;;;;4.20;1.23;;;;;;;;;;5107468;28;20411;-68
2023/07/20 13:22:13;;;;;;;6.03;1.15;;;;;;;;;;5107802;28;20492;-69
2023/07/20 13:24:40;;;;;;;5.50;1.52;;;;;;;;;;5105761;28;20059;-68
2023/07/20 13:27:06;;;;;;;3.55;0.98;;;;;;;;;;5106111;27;20124;-69
2023/07/20 13:29:32;;;;;;;3.55;1.17;;;;;;;;;;5105671;28;20479;-70
2023/07/20 13:31:59;;;;;;;2.28;1.17;;;;;;;;;;5103392;28;20111;-70
2023/07/20 13:34:26;;;;;;;2.88;1.25;;;;;;;;;;5106997;28;20043;-70
2023/07/20 13:36:52;;;;;;;5.60;1.10;;;;;;;;;;5107370;28;20052;-71
2023/07/20 13:39:19;;;;;;;3.05;1.10;;;;;;;;;;5106133;28;20039;-70
2023/07/20 13:41:45;;;;;;;7.07;1.65;;;;;;;;;;5104341;28;20039;-70
2023/07/20 13:44:11;;;;;;;2.25;1.00;;;;;;;;;;5131036;27;20093;-70
2023/07/20 13:46:39;;;;;;;3.00;1.25;;;;;;;;;;5108425;28;20050;-70
2023/07/20 13:49:05;;;;;;;3.78;1.13;;;;;;;;;;5107900;28;20507;-71
2023/07/20 13:51:31;;;;;;;4.85;1.20;;;;;;;;;;5106881;27;20075;-72
2023/07/20 13:53:58;;;;;;;3.00;1.08;;;;;;;;;;5107622;27;20156;-75
2023/07/20 13:56:24;;;;;;;2.33;1.05;;;;;;;;;;5107801;28;20131;-69
2023/07/20 13:58:51;;;;;;;1.60;0.80;;;;;;;;;;5134033;27;20047;-73
2023/07/20 14:01:17;;;;;;;3.15;1.17;;;;;;;;;;5090116;28;20047;-69
2023/07/20 14:03:44;;;;;;;2.85;1.08;;;;;;;;;;5133694;27;20264;-70
2023/07/20 14:06:13;;;;;;;4.93;1.00;;;;;;;;;;5107448;28;20047;-70
2023/07/20 14:08:40;;;;;;;1.98;0.85;;;;;;;;;;5108353;28;20055;-70
2023/07/20 14:11:06;;;;;;;2.70;0.93;;;;;;;;;;5104970;28;20074;-70
2023/07/20 14:13:32;;;;;;;2.22;0.80;;;;;;;;;;5106668;28;20062;-70
2023/07/20 14:15:59;;;;;;;2.47;0.90;;;;;;;;;;5109261;28;20035;-70
2023/07/20 14:18:25;;;;;;;2.33;0.93;;;;;;;;;;5107877;28;20505;-71
2023/07/20 14:20:51;;;;;;;3.78;0.88;;;;;;;;;;5108369;28;20035;-71
2023/07/20 14:23:17;;;;;;;1.52;0.70;;;;;;;;;;5085783;28;20059;-71
2023/07/20 14:25:44;;;;;;;2.60;0.82;;;;;;;;;;5108715;28;20031;-70
2023/07/20 14:28:10;;;;;;;5.28;1.00;;;;;;;;;;5107665;28;20494;-71
2023/07/20 14:30:36;;;;;;;2.08;0.82;;;;;;;;;;5101375;28;21369;-70
2023/07/20 14:33:02;;;;;;;1.50;0.63;;;;;;;;;;5108412;28;20082;-70
2023/07/20 14:35:28;;;;;;;2.00;0.90;;;;;;;;;;5107316;28;20048;-70
2023/07/20 14:37:55;;;;;;;2.40;0.90;;;;;;;;;;5107997;28;20075;-70
2023/07/20 14:40:21;;;;;;;2.05;0.70;;;;;;;;;;5104192;27;20040;-70
2023/07/20 14:42:47;;;;;;;1.25;0.65;;;;;;;;;;5111235;27;20046;-69